Voyager Of The Seas — C6SE5 — position and weather

sailwx.info

Track history (hours):
 
Tides and Currents Weather Stations Pressure Air Temp Water Temp Dewpoint Dewpoint Depression Visibility Wind Speed Wind Dir Waves Ship Positions

Voyager Of The Seas

Operator: Royal Caribbean Cruises Ltd

Last reported at 2015-Aug-26 19:04 UTC. Time now 2015-Aug-30 07:47 UTC.
Position N 23°54' E 118°49'.

Type: Passenger vessel. MMSI: 311317000.

Date/timePositionNaut miles runAvg speedWind from/ knotsBaromVisibWave heightAir tempDewpointWater temp
2015-Aug-26 19:04N 23°54' E 118°49'26017.9
2015-Aug-26 04:33N 22°13' E 114°28'1313.4
2015-Aug-26 03:33N 22°17' E 114°14'2 1.6
2015-Aug-26 02:33N 22°18' E 114°13'0 0.0
2015-Aug-26 01:33N 22°18' E 114°13'0 0.0
2015-Aug-26 00:33N 22°18' E 114°13'0 0.0
2015-Aug-25 23:30N 22°18' E 114°13'0 0.1
2015-Aug-25 22:33N 22°18' E 114°13'10 9.0
2015-Aug-25 21:27N 22°12' E 114°22'  
2015-Aug-19 10:07N 22°10' E 114°21'814.4
2015-Aug-19 09:33N 22°16' E 114°15'3 3.0
2015-Aug-19 08:33N 22°18' E 114°13'0 0.0
2015-Aug-19 07:33N 22°18' E 114°13'0 0.0
2015-Aug-19 06:33N 22°18' E 114°13'0 0.0
2015-Aug-19 05:33N 22°18' E 114°13'0 0.0
2015-Aug-19 04:33N 22°18' E 114°13'0 0.0
2015-Aug-19 02:30N 22°18' E 114°13'0 0.0
2015-Aug-19 01:33N 22°18' E 114°13'0 0.0
2015-Aug-19 00:33N 22°18' E 114°13'0 0.0
2015-Aug-18 23:33N 22°18' E 114°13'0 0.1
2015-Aug-18 22:33N 22°18' E 114°13'10 7.4
2015-Aug-18 21:16N 22°14' E 114°22'  
Track history (hours):
 
Tides and Currents Weather Stations Pressure Air Temp Water Temp Dewpoint Dewpoint Depression Visibility Wind Speed Wind Dir Waves Ship Positions

Voyager Of The Seas

Operator: Royal Caribbean Cruises Ltd

Last reported at 2015-Aug-26 19:04 UTC. Time now 2015-Aug-30 07:47 UTC.
Position N 23°54' E 118°49'.

Type: Passenger vessel. MMSI: 311317000.

Date/timePositionNaut miles runAvg speedWind from/ knotsBaromVisibWave heightAir tempDewpointWater temp
2015-Aug-26 19:04N 23°54' E 118°49'26017.9
2015-Aug-26 04:33N 22°13' E 114°28'1313.4
2015-Aug-26 03:33N 22°17' E 114°14'2 1.6
2015-Aug-26 02:33N 22°18' E 114°13'0 0.0
2015-Aug-26 01:33N 22°18' E 114°13'0 0.0
2015-Aug-26 00:33N 22°18' E 114°13'0 0.0
2015-Aug-25 23:30N 22°18' E 114°13'0 0.1
2015-Aug-25 22:33N 22°18' E 114°13'10 9.0
2015-Aug-25 21:27N 22°12' E 114°22'  
2015-Aug-19 10:07N 22°10' E 114°21'814.4
2015-Aug-19 09:33N 22°16' E 114°15'3 3.0
2015-Aug-19 08:33N 22°18' E 114°13'0 0.0
2015-Aug-19 07:33N 22°18' E 114°13'0 0.0
2015-Aug-19 06:33N 22°18' E 114°13'0 0.0
2015-Aug-19 05:33N 22°18' E 114°13'0 0.0
2015-Aug-19 04:33N 22°18' E 114°13'0 0.0
2015-Aug-19 02:30N 22°18' E 114°13'0 0.0
2015-Aug-19 01:33N 22°18' E 114°13'0 0.0
2015-Aug-19 00:33N 22°18' E 114°13'0 0.0
2015-Aug-18 23:33N 22°18' E 114°13'0 0.1
2015-Aug-18 22:33N 22°18' E 114°13'10 7.4
2015-Aug-18 21:16N 22°14' E 114°22'  

Dump ship's entire track history